Time;durP1;ratioP1;P1;durP2;ratioP2;P2;SDS_P1;SDS_P2;PMS_P1;PMS_P2;Temp;Humidity;BMP_temperature;BMP_pressure;BME280_temperature;BME280_humidity;BME280_pressure;Samples;Min_cycle;Max_cycle;Signal;HPM_P1;HPM_P2
2023/03/28 00:01:05;;;;;;;0.80;0.80;;;2.10;99.90;;;;;;4960543;28;20082;-85
2023/03/28 00:03:34;;;;;;;0.75;0.75;;;2.10;99.90;;;;;;4948839;28;20042;-85
2023/03/28 00:06:01;;;;;;;0.65;0.65;;;2.00;99.90;;;;;;4933484;28;20065;-84
2023/03/28 00:08:27;;;;;;;0.70;0.70;;;2.00;99.90;;;;;;4964549;28;20065;-84
2023/03/28 00:11:23;;;;;;;0.70;0.70;;;2.10;99.90;;;;;;4965342;28;20039;-84
2023/03/28 00:13:59;;;;;;;0.70;0.70;;;2.00;99.90;;;;;;4942400;28;20065;-85
2023/03/28 00:16:30;;;;;;;0.60;0.60;;;2.00;99.90;;;;;;4966258;28;20047;-86
2023/03/28 00:18:59;;;;;;;0.65;0.65;;;2.00;99.90;;;;;;4951767;28;20114;-83
2023/03/28 00:21:36;;;;;;;3.80;2.97;;;2.40;99.90;;;;;;4967822;28;20125;-83
2023/03/28 00:24:05;;;;;;;2.28;1.05;;;1.90;99.90;;;;;;4968608;28;20108;-84
2023/03/28 00:26:34;;;;;;;0.57;0.57;;;1.90;99.90;;;;;;4967029;28;20053;-86
2023/03/28 00:29:01;;;;;;;0.65;0.65;;;1.90;99.90;;;;;;4963061;28;20065;-86
2023/03/28 00:31:28;;;;;;;0.70;0.70;;;1.90;99.90;;;;;;4962574;28;20104;-86
2023/03/28 00:33:55;;;;;;;0.60;0.60;;;1.90;99.90;;;;;;4967570;28;20039;-86
2023/03/28 00:36:25;;;;;;;0.70;0.70;;;1.80;99.90;;;;;;4951554;28;20069;-85
2023/03/28 00:38:52;;;;;;;0.70;0.70;;;1.70;99.90;;;;;;4956870;28;20047;-86
2023/03/28 00:41:20;;;;;;;0.73;0.73;;;1.70;99.90;;;;;;4966463;28;20050;-84
2023/03/28 00:43:49;;;;;;;0.80;0.80;;;1.70;99.90;;;;;;4967429;28;20180;-84
2023/03/28 00:46:21;;;;;;;0.70;0.70;;;1.70;99.90;;;;;;5033783;28;20388;-86
2023/03/28 00:48:57;;;;;;;0.70;0.70;;;1.70;99.90;;;;;;4966571;28;20407;-85
2023/03/28 00:51:29;;;;;;;;;;;1.70;99.90;;;;;;4964760;28;20054;-86
2023/03/28 00:53:58;;;;;;;0.70;0.70;;;1.70;99.90;;;;;;4958781;28;19925;-87
2023/03/28 00:56:28;;;;;;;0.70;0.70;;;1.90;99.90;;;;;;4965776;28;20039;-86
2023/03/28 00:58:55;;;;;;;0.88;0.88;;;1.70;99.90;;;;;;4968960;28;20055;-85
2023/03/28 01:01:21;;;;;;;0.70;0.70;;;1.60;99.90;;;;;;4968788;28;20054;-86
2023/03/28 01:04:01;;;;;;;0.70;0.70;;;1.60;99.90;;;;;;5034020;28;20054;-86
2023/03/28 01:06:34;;;;;;;0.80;0.80;;;1.60;99.90;;;;;;4963809;28;20051;-86
2023/03/28 01:09:03;;;;;;;0.60;0.60;;;1.60;99.90;;;;;;4963846;28;20073;-86
2023/03/28 01:11:31;;;;;;;0.73;0.73;;;1.70;99.90;;;;;;4947155;28;20089;-85
2023/03/28 01:14:01;;;;;;;0.80;0.80;;;1.50;99.90;;;;;;4949815;28;20035;-85
2023/03/28 01:16:29;;;;;;;0.82;0.82;;;1.50;99.90;;;;;;4963172;28;20121;-85
2023/03/28 01:19:00;;;;;;;0.70;0.70;;;1.70;99.90;;;;;;4957879;28;20035;-86
2023/03/28 01:21:53;;;;;;;0.70;0.70;;;1.50;99.90;;;;;;4964512;28;20047;-85
2023/03/28 01:24:57;;;;;;;0.70;0.70;;;1.50;99.90;;;;;;4961563;28;20499;-85
2023/03/28 01:27:38;;;;;;;0.70;0.70;;;1.40;99.90;;;;;;4962923;28;20137;-86
2023/03/28 01:30:22;;;;;;;0.70;0.70;;;1.40;99.90;;;;;;4965262;28;20051;-87
2023/03/28 01:33:18;;;;;;;0.93;0.93;;;1.40;99.90;;;;;;4967894;28;20047;-85
2023/03/28 01:35:53;;;;;;;0.80;0.80;;;1.30;99.90;;;;;;4966042;28;20125;-85
2023/03/28 01:38:40;;;;;;;0.80;0.80;;;1.30;99.90;;;;;;4969210;28;20438;-85
2023/03/28 01:41:30;;;;;;;0.80;0.80;;;1.20;99.90;;;;;;4950988;28;20035;-86
2023/03/28 01:44:32;;;;;;;0.80;0.80;;;1.30;99.90;;;;;;4961071;28;20058;-83
2023/03/28 01:47:04;;;;;;;0.70;0.70;;;1.30;99.90;;;;;;4974001;28;20062;-85
2023/03/28 01:49:42;;;;;;;0.90;0.90;;;1.20;99.90;;;;;;4958951;28;20051;-85
2023/03/28 01:52:19;;;;;;;0.70;0.70;;;1.20;99.90;;;;;;4966498;28;20111;-85
2023/03/28 01:55:09;;;;;;;0.80;0.80;;;1.10;99.90;;;;;;4964524;28;20046;-86
2023/03/28 01:57:40;;;;;;;0.60;0.60;;;1.10;99.90;;;;;;4964576;28;20054;-85
2023/03/28 02:00:23;;;;;;;0.80;0.80;;;1.10;99.90;;;;;;4965857;28;20039;-86
2023/03/28 02:02:59;;;;;;;0.70;0.70;;;1.00;99.90;;;;;;4964339;28;20046;-86
2023/03/28 02:05:28;;;;;;;0.75;0.75;;;1.00;99.90;;;;;;4963822;28;20078;-86
2023/03/28 02:07:54;;;;;;;0.80;0.80;;;1.80;99.90;;;;;;4965635;28;20135;-85
2023/03/28 02:10:26;;;;;;;0.70;0.70;;;1.10;99.90;;;;;;4967992;28;20362;-85
2023/03/28 02:12:59;;;;;;;0.80;0.80;;;1.00;99.90;;;;;;4959907;28;20488;-86
2023/03/28 02:15:27;;;;;;;0.75;0.75;;;1.00;99.90;;;;;;4980639;28;20117;-86
2023/03/28 02:18:02;;;;;;;0.73;0.73;;;1.00;99.90;;;;;;4960112;28;20405;-84
2023/03/28 02:20:32;;;;;;;0.80;0.80;;;1.00;99.90;;;;;;4965426;28;20411;-83
2023/03/28 02:23:10;;;;;;;0.70;0.70;;;1.10;99.90;;;;;;4961522;28;20516;-84
2023/03/28 02:25:37;;;;;;;2.05;1.67;;;0.90;99.90;;;;;;4964300;28;20103;-86
2023/03/28 02:28:07;;;;;;;0.70;0.70;;;0.90;99.90;;;;;;4948666;28;20119;-85
2023/03/28 02:30:34;;;;;;;0.80;0.80;;;0.90;99.90;;;;;;4959904;28;20107;-86
2023/03/28 02:33:07;;;;;;;0.80;0.80;;;0.90;99.90;;;;;;4962443;28;20830;-86
2023/03/28 02:35:56;;;;;;;0.73;0.73;;;1.80;99.90;;;;;;4972166;28;20048;-85
2023/03/28 02:38:33;;;;;;;0.80;0.80;;;0.90;99.90;;;;;;4963069;28;20081;-86
2023/03/28 02:41:35;;;;;;;0.68;0.68;;;0.80;99.90;;;;;;4966923;28;20085;-87
2023/03/28 02:44:28;;;;;;;0.70;0.70;;;0.90;99.90;;;;;;4986398;28;21535;-87
2023/03/28 02:47:25;;;;;;;0.63;0.63;;;0.80;99.90;;;;;;4955401;28;20050;-87
2023/03/28 02:50:09;;;;;;;0.77;0.77;;;0.80;99.90;;;;;;4949049;28;20443;-86
2023/03/28 02:52:57;;;;;;;0.70;0.70;;;0.80;99.90;;;;;;4965029;28;20050;-86
2023/03/28 02:55:27;;;;;;;0.68;0.68;;;0.70;99.90;;;;;;4966478;28;20144;-87
2023/03/28 02:58:07;;;;;;;0.80;0.80;;;0.70;99.90;;;;;;4966512;28;20042;-88
2023/03/28 03:00:33;;;;;;;0.90;0.90;;;0.70;99.90;;;;;;4962608;28;20039;-87
2023/03/28 03:02:58;;;;;;;0.77;0.77;;;0.60;99.90;;;;;;4952918;28;20463;-87
2023/03/28 03:05:24;;;;;;;0.65;0.65;;;0.60;99.90;;;;;;5033504;28;20125;-87
2023/03/28 03:07:50;;;;;;;0.77;0.77;;;0.50;99.90;;;;;;4966631;28;20051;-86
2023/03/28 03:10:17;;;;;;;0.80;0.80;;;0.50;99.90;;;;;;5032340;28;20474;-86
2023/03/28 03:12:43;;;;;;;0.70;0.70;;;0.50;99.90;;;;;;4966287;28;20046;-86
2023/03/28 03:15:10;;;;;;;0.80;0.80;;;0.50;99.90;;;;;;4966711;28;20033;-87
2023/03/28 03:17:37;;;;;;;0.73;0.73;;;0.50;99.90;;;;;;4946915;28;20042;-86
2023/03/28 03:20:06;;;;;;;1.30;1.30;;;0.50;99.90;;;;;;4963084;28;20050;-85
2023/03/28 03:22:33;;;;;;;0.88;0.88;;;0.50;99.90;;;;;;4960185;28;20050;-86
2023/03/28 03:25:05;;;;;;;0.82;0.82;;;0.50;99.90;;;;;;4962337;28;20051;-85
2023/03/28 03:27:32;;;;;;;0.75;0.75;;;0.40;99.90;;;;;;4964275;28;20057;-85
2023/03/28 03:29:58;;;;;;;0.80;0.80;;;0.40;99.90;;;;;;4963177;28;20116;-86
2023/03/28 03:32:24;;;;;;;0.68;0.68;;;0.40;99.90;;;;;;4953208;28;20071;-86
2023/03/28 03:34:50;;;;;;;;;;;0.40;99.90;;;;;;4979253;28;20046;-86
2023/03/28 03:37:16;;;;;;;0.80;0.80;;;1.20;99.90;;;;;;4965369;28;19926;-86
2023/03/28 03:39:45;;;;;;;0.70;0.70;;;0.30;99.90;;;;;;4966294;28;20689;-86
2023/03/28 03:42:12;;;;;;;0.80;0.80;;;0.30;99.90;;;;;;4969505;28;20151;-85
2023/03/28 03:44:38;;;;;;;0.70;0.70;;;0.30;99.90;;;;;;4961136;28;20042;-84
2023/03/28 03:47:04;;;;;;;0.75;0.75;;;0.30;99.90;;;;;;4929704;28;20511;-87
2023/03/28 03:49:30;;;;;;;0.90;0.90;;;0.20;99.90;;;;;;4959616;28;20051;-86
2023/03/28 03:51:56;;;;;;;1.73;1.63;;;1.10;99.90;;;;;;4963679;28;20105;-86
2023/03/28 03:54:22;;;;;;;0.90;0.90;;;0.30;99.90;;;;;;4969289;28;20038;-87
2023/03/28 03:56:48;;;;;;;0.65;0.65;;;0.20;99.90;;;;;;4958647;28;20050;-86
2023/03/28 03:59:14;;;;;;;0.80;0.80;;;0.20;99.90;;;;;;4965313;28;20039;-86
2023/03/28 04:01:42;;;;;;;0.70;0.70;;;0.20;99.90;;;;;;4948965;28;20046;-86
2023/03/28 04:04:09;;;;;;;0.60;0.60;;;0.10;99.90;;;;;;4962031;28;20058;-84
2023/03/28 04:06:37;;;;;;;0.70;0.70;;;0.10;99.90;;;;;;4962832;28;20094;-86
2023/03/28 04:09:04;;;;;;;0.70;0.70;;;0.10;99.90;;;;;;4963737;28;20035;-85
2023/03/28 04:11:29;;;;;;;0.70;0.70;;;0.10;99.90;;;;;;4946061;28;20471;-86
2023/03/28 04:13:55;;;;;;;0.80;0.80;;;0.00;99.90;;;;;;4960927;28;20074;-85
2023/03/28 04:16:22;;;;;;;0.77;0.77;;;0.00;99.90;;;;;;4962492;28;20093;-86
2023/03/28 04:18:51;;;;;;;0.70;0.70;;;0.10;99.90;;;;;;4962971;28;20049;-85
2023/03/28 04:21:27;;;;;;;0.70;0.70;;;-0.10;99.90;;;;;;4931971;28;20047;-85
2023/03/28 04:23:53;;;;;;;0.70;0.70;;;-0.20;99.90;;;;;;4958163;28;20043;-84
2023/03/28 04:26:25;;;;;;;0.80;0.80;;;0.70;99.90;;;;;;4963675;28;20133;-85
2023/03/28 04:28:53;;;;;;;0.60;0.60;;;-0.20;99.90;;;;;;4945915;28;20062;-85
2023/03/28 04:31:22;;;;;;;0.80;0.80;;;-0.10;99.90;;;;;;4935353;28;20073;-85
2023/03/28 04:33:48;;;;;;;0.70;0.70;;;-0.10;99.90;;;;;;4962461;28;20134;-85
2023/03/28 04:36:15;;;;;;;;;;;-0.10;99.90;;;;;;4965766;28;20035;-85
2023/03/28 04:38:44;;;;;;;0.77;0.77;;;-0.10;99.90;;;;;;4962895;28;19969;-85
2023/03/28 04:41:12;;;;;;;0.80;0.80;;;-0.10;99.90;;;;;;4965483;28;20046;-86
2023/03/28 04:43:38;;;;;;;0.70;0.70;;;-0.10;99.90;;;;;;4952584;28;20141;-86
2023/03/28 04:46:04;;;;;;;0.80;0.80;;;-0.20;99.90;;;;;;4949362;28;20034;-84
2023/03/28 04:48:30;;;;;;;;;;;-0.20;99.90;;;;;;4965806;28;20046;-86
2023/03/28 04:50:56;;;;;;;2.63;2.42;;;-0.30;99.90;;;;;;4962525;28;19923;-87
2023/03/28 04:53:22;;;;;;;;;;;-0.30;99.90;;;;;;4963144;28;20068;-85
2023/03/28 04:55:49;;;;;;;0.73;0.73;;;-0.30;99.90;;;;;;4963934;28;19926;-86
2023/03/28 04:58:20;;;;;;;0.70;0.70;;;-0.20;99.90;;;;;;4968724;28;20046;-87
2023/03/28 05:00:48;;;;;;;0.73;0.73;;;-0.20;99.90;;;;;;4946732;28;20051;-86
2023/03/28 05:03:22;;;;;;;0.88;0.88;;;-0.30;99.90;;;;;;4960257;28;20061;-84
2023/03/28 05:05:50;;;;;;;0.70;0.70;;;-0.40;99.90;;;;;;4963948;28;20085;-85
2023/03/28 05:08:18;;;;;;;0.70;0.70;;;-0.50;99.90;;;;;;4959324;28;20054;-85
2023/03/28 05:10:44;;;;;;;0.70;0.70;;;-0.50;99.90;;;;;;4961378;28;20579;-86
2023/03/28 05:13:11;;;;;;;0.70;0.70;;;-0.60;99.90;;;;;;4967650;28;20091;-86
2023/03/28 05:15:37;;;;;;;0.80;0.80;;;-0.50;99.90;;;;;;4964259;28;20054;-85
2023/03/28 05:18:02;;;;;;;;;;;-0.70;99.90;;;;;;4951596;28;20565;-84
2023/03/28 05:20:30;;;;;;;0.65;0.65;;;-0.70;99.90;;;;;;4969573;28;20005;-86
2023/03/28 05:22:56;;;;;;;0.77;0.77;;;-0.70;99.90;;;;;;4965645;28;20102;-85
2023/03/28 05:25:22;;;;;;;0.70;0.70;;;-0.70;99.90;;;;;;4965708;28;20575;-86
2023/03/28 05:27:48;;;;;;;;;;;-0.60;99.90;;;;;;4945153;28;20391;-85
2023/03/28 05:30:14;;;;;;;0.80;0.80;;;-0.40;99.90;;;;;;4967606;28;19921;-85
2023/03/28 05:32:40;;;;;;;0.68;0.68;;;-0.40;99.90;;;;;;4936556;28;20081;-85
2023/03/28 05:35:08;;;;;;;0.65;0.65;;;-0.30;99.90;;;;;;4965518;28;20039;-85
2023/03/28 05:37:35;;;;;;;0.60;0.60;;;-0.20;99.90;;;;;;4968948;28;20104;-85
2023/03/28 05:40:05;;;;;;;0.80;0.80;;;-0.20;99.90;;;;;;4947321;28;20030;-87
2023/03/28 05:42:37;;;;;;;0.80;0.80;;;-0.20;99.90;;;;;;4966323;28;20054;-87
2023/03/28 05:45:05;;;;;;;0.80;0.80;;;-0.10;99.90;;;;;;4945602;28;20057;-87
2023/03/28 05:47:31;;;;;;;0.73;0.73;;;0.00;99.90;;;;;;4969756;28;20145;-84
2023/03/28 05:49:57;;;;;;;0.70;0.70;;;0.10;99.90;;;;;;4946071;28;20066;-85
2023/03/28 05:52:23;;;;;;;0.80;0.80;;;0.20;99.90;;;;;;4965664;28;20039;-85
2023/03/28 05:54:49;;;;;;;;;;;0.20;99.90;;;;;;4965628;28;20043;-86
2023/03/28 05:57:15;;;;;;;0.82;0.82;;;0.30;99.90;;;;;;4964841;28;19917;-85
2023/03/28 05:59:41;;;;;;;;;;;0.40;99.90;;;;;;4948180;28;20122;-85
2023/03/28 06:02:12;;;;;;;0.70;0.70;;;0.50;99.90;;;;;;4966329;28;19925;-86
2023/03/28 06:04:38;;;;;;;0.70;0.70;;;0.60;99.90;;;;;;4966395;28;20058;-85
2023/03/28 06:07:04;;;;;;;;;;;0.70;99.90;;;;;;4968528;28;20380;-85
2023/03/28 06:09:30;;;;;;;0.70;0.70;;;0.80;99.90;;;;;;4974481;28;20013;-86
2023/03/28 06:12:00;;;;;;;0.73;0.73;;;1.00;99.90;;;;;;4967011;28;20619;-85
2023/03/28 06:14:26;;;;;;;0.70;0.70;;;1.40;99.90;;;;;;4964691;28;20046;-85
2023/03/28 06:16:52;;;;;;;0.80;0.80;;;1.30;99.90;;;;;;4962469;28;20086;-87
2023/03/28 06:19:18;;;;;;;0.70;0.70;;;1.40;99.90;;;;;;4965001;28;21439;-84
2023/03/28 06:21:43;;;;;;;0.70;0.70;;;1.60;99.90;;;;;;4950827;28;20098;-82
2023/03/28 06:24:10;;;;;;;0.80;0.80;;;1.70;99.90;;;;;;4953877;28;20054;-84
2023/03/28 06:26:35;;;;;;;0.80;0.80;;;1.90;99.90;;;;;;4960146;28;20133;-83
2023/03/28 06:29:02;;;;;;;0.60;0.60;;;2.00;99.90;;;;;;4973735;28;20137;-82
2023/03/28 06:31:27;;;;;;;;;;;2.10;99.90;;;;;;4962952;28;20067;-82
2023/03/28 06:33:53;;;;;;;0.70;0.70;;;2.50;99.90;;;;;;4952807;28;19922;-83
2023/03/28 06:36:19;;;;;;;0.70;0.70;;;2.30;99.90;;;;;;4961587;28;20043;-82
2023/03/28 06:38:45;;;;;;;;;;;2.50;99.90;;;;;;4968848;28;20194;-82
2023/03/28 06:41:11;;;;;;;0.80;0.80;;;2.90;99.90;;;;;;4960574;28;19928;-81
2023/03/28 06:43:37;;;;;;;0.60;0.60;;;3.30;99.90;;;;;;4964388;28;20050;-82
2023/03/28 06:46:03;;;;;;;0.63;0.63;;;2.50;99.90;;;;;;4963671;28;20439;-82
2023/03/28 06:48:30;;;;;;;;;;;2.50;99.90;;;;;;4956307;28;20042;-82
2023/03/28 06:50:59;;;;;;;0.60;0.60;;;2.50;99.90;;;;;;4958166;28;20317;-82
2023/03/28 06:53:25;;;;;;;0.70;0.70;;;2.40;99.90;;;;;;4969630;28;20681;-82
2023/03/28 06:55:52;;;;;;;0.73;0.73;;;2.40;99.90;;;;;;4947780;28;20122;-81
2023/03/28 06:58:19;;;;;;;0.60;0.60;;;2.40;99.90;;;;;;4967449;28;20108;-83
2023/03/28 07:00:45;;;;;;;0.60;0.60;;;2.30;99.90;;;;;;4947055;28;20039;-85
2023/03/28 07:03:11;;;;;;;0.70;0.70;;;2.30;99.90;;;;;;4965388;28;20538;-84
2023/03/28 07:05:41;;;;;;;0.65;0.65;;;2.20;99.90;;;;;;4935239;28;20046;-83
2023/03/28 07:08:08;;;;;;;0.60;0.60;;;2.20;99.90;;;;;;4969211;28;20559;-84
2023/03/28 07:10:36;;;;;;;0.70;0.70;;;2.10;99.90;;;;;;4947100;28;20055;-84
2023/03/28 07:13:01;;;;;;;0.60;0.60;;;2.20;99.90;;;;;;4968117;28;20683;-84
2023/03/28 07:15:27;;;;;;;0.80;0.80;;;3.10;99.90;;;;;;4952859;28;20136;-83
2023/03/28 07:17:53;;;;;;;0.55;0.55;;;3.60;99.90;;;;;;4948619;28;20039;-84
2023/03/28 07:20:20;;;;;;;0.65;0.65;;;2.90;99.90;;;;;;4958055;28;20523;-84
2023/03/28 07:22:46;;;;;;;0.60;0.60;;;2.70;99.90;;;;;;4946315;28;20039;-84
2023/03/28 07:25:12;;;;;;;0.70;0.70;;;2.70;99.90;;;;;;4964615;28;20095;-84
2023/03/28 07:27:38;;;;;;;9.35;1.00;;;2.90;99.90;;;;;;4961472;28;20053;-83
2023/03/28 07:30:07;;;;;;;0.75;0.75;;;3.00;99.90;;;;;;4929586;28;20492;-85
2023/03/28 07:32:35;;;;;;;0.60;0.60;;;3.10;99.90;;;;;;4959542;28;20122;-82
2023/03/28 07:35:01;;;;;;;0.75;0.75;;;3.30;99.90;;;;;;4960187;28;20103;-84
2023/03/28 07:37:26;;;;;;;0.63;0.63;;;4.10;99.90;;;;;;4935490;28;20129;-83
2023/03/28 07:39:56;;;;;;;0.70;0.70;;;3.60;99.90;;;;;;4966750;28;20042;-84
2023/03/28 07:42:22;;;;;;;0.70;0.70;;;4.30;99.90;;;;;;4919814;28;20054;-84
2023/03/28 07:44:47;;;;;;;;;;;3.80;99.90;;;;;;4963463;28;20373;-84
2023/03/28 07:47:15;;;;;;;0.60;0.60;;;3.90;99.90;;;;;;4974263;28;19924;-84
2023/03/28 07:49:41;;;;;;;0.63;0.63;;;4.20;99.90;;;;;;4962343;28;20570;-84
2023/03/28 07:52:07;;;;;;;0.52;0.52;;;4.20;99.90;;;;;;4943425;28;20074;-84
2023/03/28 07:54:33;;;;;;;0.80;0.80;;;4.30;99.90;;;;;;5033809;28;20520;-84
2023/03/28 07:56:59;;;;;;;;;;;5.20;99.90;;;;;;4950038;28;20050;-85
2023/03/28 07:59:25;;;;;;;0.60;0.60;;;4.70;99.90;;;;;;4932238;28;19922;-85
2023/03/28 08:01:51;;;;;;;1.00;1.00;;;5.50;99.90;;;;;;4951828;28;20451;-83
2023/03/28 08:04:23;;;;;;;0.60;0.60;;;5.50;99.90;;;;;;4953008;28;20050;-85
2023/03/28 08:06:51;;;;;;;0.57;0.57;;;4.90;99.90;;;;;;5030990;28;20412;-83
2023/03/28 08:09:18;;;;;;;0.60;0.60;;;5.50;99.90;;;;;;4918666;28;20152;-84
2023/03/28 08:11:44;;;;;;;0.60;0.60;;;5.20;99.90;;;;;;4933544;28;20046;-84
2023/03/28 08:14:11;;;;;;;;;;;6.00;99.90;;;;;;4947534;28;20124;-83
2023/03/28 08:16:37;;;;;;;0.60;0.60;;;5.30;99.90;;;;;;4957876;28;20492;-84
2023/03/28 08:19:03;;;;;;;0.68;0.68;;;5.30;99.90;;;;;;4958969;28;20047;-85
2023/03/28 08:21:30;;;;;;;0.68;0.68;;;5.50;99.90;;;;;;4966951;28;20388;-83
2023/03/28 08:23:56;;;;;;;0.40;0.40;;;5.60;99.90;;;;;;4950947;28;20053;-84
2023/03/28 08:26:23;;;;;;;1.52;0.55;;;5.70;99.90;;;;;;4946692;28;20043;-83
2023/03/28 08:28:48;;;;;;;0.55;0.55;;;5.90;99.90;;;;;;4946258;28;20721;-84
2023/03/28 08:31:24;;;;;;;0.50;0.50;;;6.20;99.90;;;;;;4945981;28;20554;-84
2023/03/28 08:33:51;;;;;;;0.57;0.57;;;6.40;99.90;;;;;;4949750;28;20058;-83
2023/03/28 08:36:17;;;;;;;0.50;0.50;;;6.50;99.90;;;;;;4977267;28;20567;-83
2023/03/28 08:38:43;;;;;;;;;;;6.60;99.90;;;;;;4962237;28;20423;-84
2023/03/28 08:41:28;;;;;;;0.55;0.55;;;6.60;99.90;;;;;;4967157;28;19922;-83
2023/03/28 08:44:06;;;;;;;0.70;0.70;;;6.60;99.90;;;;;;4963469;28;20047;-84
2023/03/28 08:46:34;;;;;;;0.47;0.47;;;6.50;99.90;;;;;;4965639;28;20054;-84
2023/03/28 08:49:05;;;;;;;0.43;0.43;;;6.50;99.90;;;;;;4956496;28;20047;-83
2023/03/28 08:51:41;;;;;;;0.60;0.60;;;6.40;99.90;;;;;;4954253;28;20065;-83
2023/03/28 08:54:27;;;;;;;0.55;0.55;;;6.40;99.90;;;;;;4970638;28;21075;-84
2023/03/28 08:56:56;;;;;;;0.57;0.57;;;6.40;99.90;;;;;;4967342;28;20081;-84
2023/03/28 08:59:37;;;;;;;0.55;0.55;;;6.40;99.90;;;;;;4966349;28;20035;-83
2023/03/28 09:02:08;;;;;;;0.50;0.50;;;6.40;99.90;;;;;;4967566;28;20546;-83
2023/03/28 09:04:34;;;;;;;0.80;0.70;;;6.80;99.90;;;;;;4961863;28;20042;-83
2023/03/28 09:07:45;;;;;;;0.60;0.60;;;6.50;99.90;;;;;;4971050;28;20139;-83
2023/03/28 09:10:16;;;;;;;0.60;0.60;;;6.60;99.90;;;;;;4959285;28;20047;-84
2023/03/28 09:13:12;;;;;;;0.50;0.50;;;6.70;99.90;;;;;;4967036;28;20058;-84
2023/03/28 09:15:58;;;;;;;0.40;0.40;;;6.70;99.90;;;;;;4965349;28;20050;-82
2023/03/28 09:18:45;;;;;;;0.57;0.57;;;6.70;99.90;;;;;;4964368;28;20122;-84
2023/03/28 09:21:20;;;;;;;0.50;0.50;;;6.80;99.90;;;;;;4967594;28;20043;-85
2023/03/28 09:24:17;;;;;;;0.40;0.40;;;6.90;99.90;;;;;;4967815;28;20049;-83
2023/03/28 09:27:01;;;;;;;0.63;0.63;;;7.00;99.90;;;;;;4969331;28;20046;-84
2023/03/28 09:29:31;;;;;;;0.43;0.43;;;7.00;99.90;;;;;;4981342;28;20404;-83
2023/03/28 09:32:03;;;;;;;0.60;0.60;;;7.10;99.90;;;;;;4970107;28;20106;-83
2023/03/28 09:34:37;;;;;;;0.50;0.50;;;7.20;99.90;;;;;;4952790;28;20065;-84
2023/03/28 09:37:16;;;;;;;0.40;0.40;;;7.30;99.90;;;;;;4947207;28;20073;-84
2023/03/28 09:39:48;;;;;;;0.60;0.60;;;7.30;99.90;;;;;;4966881;28;20043;-83
2023/03/28 09:42:49;;;;;;;0.50;0.50;;;7.30;99.90;;;;;;4955929;28;20085;-83
2023/03/28 09:45:53;;;;;;;0.50;0.50;;;7.60;99.90;;;;;;4964538;28;20050;-84
2023/03/28 09:48:42;;;;;;;0.50;0.50;;;7.70;99.90;;;;;;4971479;28;20042;-83
2023/03/28 09:51:15;;;;;;;0.52;0.52;;;7.70;99.90;;;;;;4960705;28;20058;-83
2023/03/28 09:53:41;;;;;;;0.50;0.50;;;7.60;99.90;;;;;;4947355;28;20034;-83
2023/03/28 09:56:27;;;;;;;0.30;0.30;;;7.60;99.90;;;;;;4964877;28;20062;-83
2023/03/28 09:59:02;;;;;;;0.40;0.40;;;7.60;99.90;;;;;;4971304;28;20051;-84
2023/03/28 10:01:44;;;;;;;0.50;0.50;;;7.70;99.90;;;;;;4970176;28;20546;-84
2023/03/28 10:04:10;;;;;;;0.43;0.43;;;7.70;99.90;;;;;;4948106;28;20144;-84
2023/03/28 10:06:43;;;;;;;0.50;0.50;;;7.60;99.90;;;;;;4948499;28;20103;-84
2023/03/28 10:09:19;;;;;;;0.40;0.40;;;7.60;99.90;;;;;;4953421;28;20047;-84
2023/03/28 10:11:58;;;;;;;0.30;0.30;;;7.40;99.90;;;;;;4952747;28;20043;-83
2023/03/28 10:14:36;;;;;;;0.40;0.40;;;7.40;99.90;;;;;;4971354;28;20421;-82
2023/03/28 10:17:30;;;;;;;0.63;0.63;;;7.50;99.90;;;;;;4966991;28;20077;-84
2023/03/28 10:20:20;;;;;;;0.50;0.50;;;7.60;99.00;;;;;;4953081;28;20039;-83
2023/03/28 10:22:49;;;;;;;0.65;0.65;;;7.50;99.70;;;;;;4967265;28;20046;-83
2023/03/28 10:25:19;;;;;;;0.50;0.50;;;7.80;99.90;;;;;;4979870;28;20052;-83
2023/03/28 10:27:47;;;;;;;0.40;0.40;;;8.00;99.90;;;;;;4950985;28;20511;-82
2023/03/28 10:30:12;;;;;;;0.40;0.40;;;8.10;99.90;;;;;;4968646;28;20058;-83
2023/03/28 10:32:40;;;;;;;0.50;0.50;;;8.10;99.90;;;;;;4965675;28;20047;-84
2023/03/28 10:35:22;;;;;;;0.43;0.43;;;8.10;99.90;;;;;;4974303;28;20039;-83
2023/03/28 10:37:55;;;;;;;0.43;0.43;;;8.10;99.90;;;;;;4965179;28;20043;-83
2023/03/28 10:40:26;;;;;;;0.50;0.50;;;8.00;99.60;;;;;;5006024;28;20056;-84
2023/03/28 10:42:52;;;;;;;0.40;0.40;;;7.80;99.90;;;;;;4967632;28;20050;-84
2023/03/28 10:45:40;;;;;;;0.43;0.43;;;7.80;99.90;;;;;;4932902;28;20382;-83
2023/03/28 10:48:20;;;;;;;0.43;0.43;;;7.70;99.90;;;;;;4949047;28;20073;-83
2023/03/28 10:51:00;;;;;;;0.50;0.50;;;7.70;99.90;;;;;;4949357;28;20400;-83
2023/03/28 10:53:42;;;;;;;0.88;0.88;;;7.80;99.70;;;;;;4961951;28;20054;-83
2023/03/28 10:56:12;;;;;;;0.43;0.43;;;7.80;99.30;;;;;;4954665;28;20054;-83
2023/03/28 10:58:59;;;;;;;0.30;0.30;;;7.90;99.00;;;;;;4963148;28;20047;-83
2023/03/28 11:01:39;;;;;;;0.40;0.40;;;8.00;99.10;;;;;;4955449;28;20042;-83
2023/03/28 11:04:52;;;;;;;0.50;0.50;;;8.20;99.90;;;;;;4967056;28;20342;-84
2023/03/28 11:07:45;;;;;;;0.47;0.47;;;8.50;99.90;;;;;;4988625;28;20038;-84
2023/03/28 11:10:24;;;;;;;0.68;0.68;;;8.70;99.40;;;;;;4960336;28;20058;-83
2023/03/28 11:13:11;;;;;;;0.60;0.60;;;8.90;99.90;;;;;;4979470;28;20631;-82
2023/03/28 11:16:02;;;;;;;0.75;0.75;;;8.90;99.40;;;;;;4965483;28;20042;-83
2023/03/28 11:19:03;;;;;;;0.45;0.45;;;9.00;99.90;;;;;;4974238;28;20479;-84
2023/03/28 11:21:48;;;;;;;0.50;0.50;;;8.80;99.00;;;;;;4948772;28;20543;-83
2023/03/28 11:24:34;;;;;;;0.50;0.50;;;8.90;99.90;;;;;;4991535;28;20052;-83
2023/03/28 11:27:17;;;;;;;0.50;0.50;;;9.00;99.90;;;;;;4957387;28;20059;-83
2023/03/28 11:30:01;;;;;;;0.50;0.50;;;8.90;99.20;;;;;;4965482;28;20058;-84
2023/03/28 11:32:39;;;;;;;0.50;0.50;;;8.80;99.60;;;;;;4973635;28;20105;-83
2023/03/28 11:35:25;;;;;;;0.43;0.43;;;9.00;99.90;;;;;;4963517;28;20057;-84
2023/03/28 11:37:59;;;;;;;0.57;0.57;;;9.00;99.90;;;;;;4968404;28;20081;-84
2023/03/28 11:40:29;;;;;;;0.40;0.40;;;8.90;99.60;;;;;;4961819;28;20038;-83
2023/03/28 11:43:02;;;;;;;0.55;0.55;;;8.80;99.70;;;;;;4960316;28;20472;-83
2023/03/28 11:45:46;;;;;;;0.40;0.40;;;8.90;99.90;;;;;;4951003;28;20612;-83
2023/03/28 11:48:18;;;;;;;0.50;0.50;;;9.10;99.90;;;;;;4974983;28;20039;-83
2023/03/28 11:51:08;;;;;;;0.30;0.30;;;9.10;99.80;;;;;;4972302;28;20096;-84
2023/03/28 11:53:55;;;;;;;0.50;0.50;;;9.20;99.80;;;;;;4946755;28;20492;-83
2023/03/28 11:56:47;;;;;;;0.30;0.30;;;9.20;99.70;;;;;;4975955;28;20384;-83
2023/03/28 11:59:29;;;;;;;0.40;0.40;;;9.30;98.70;;;;;;4970247;28;20046;-83
2023/03/28 12:02:02;;;;;;;0.40;0.40;;;9.50;97.10;;;;;;4965162;28;20043;-83
2023/03/28 12:05:01;;;;;;;0.50;0.50;;;9.70;99.60;;;;;;4960607;28;20058;-83
2023/03/28 12:07:33;;;;;;;0.40;0.40;;;9.80;98.30;;;;;;4958970;28;20423;-84
2023/03/28 12:10:08;;;;;;;0.40;0.40;;;9.80;98.10;;;;;;4952190;28;20483;-84
2023/03/28 12:12:48;;;;;;;1.55;0.52;;;10.00;99.40;;;;;;4971918;28;20539;-84
2023/03/28 12:15:20;;;;;;;0.50;0.50;;;10.20;99.50;;;;;;4969055;28;20046;-83
2023/03/28 12:17:55;;;;;;;0.30;0.30;;;10.20;97.20;;;;;;4965155;28;20081;-84
2023/03/28 12:20:59;;;;;;;0.40;0.40;;;10.10;96.60;;;;;;4971252;28;20042;-84
2023/03/28 12:24:10;;;;;;;0.40;0.40;;;10.10;96.00;;;;;;4968632;28;20058;-83
2023/03/28 12:26:56;;;;;;;0.60;0.60;;;10.10;96.10;;;;;;4946764;28;20083;-82
2023/03/28 12:29:50;;;;;;;0.40;0.40;;;10.30;96.40;;;;;;4942766;28;20086;-83
2023/03/28 12:32:51;;;;;;;0.50;0.50;;;10.70;98.30;;;;;;4941206;28;20081;-84
2023/03/28 12:35:42;;;;;;;0.68;0.68;;;10.50;95.20;;;;;;4948259;28;20421;-83
2023/03/28 12:38:31;;;;;;;0.60;0.60;;;10.30;95.90;;;;;;4952762;28;20184;-83
2023/03/28 12:41:02;;;;;;;0.40;0.40;;;10.20;96.10;;;;;;4947890;28;20037;-83
2023/03/28 12:43:45;;;;;;;0.40;0.40;;;10.10;95.70;;;;;;4925497;28;20042;-83
2023/03/28 12:46:17;;;;;;;0.40;0.40;;;10.00;96.00;;;;;;4968667;28;20506;-83
2023/03/28 12:49:13;;;;;;;0.50;0.50;;;9.90;96.90;;;;;;4977040;28;20407;-84
2023/03/28 12:51:45;;;;;;;0.43;0.43;;;10.10;97.50;;;;;;4995124;28;20415;-84
2023/03/28 12:54:14;;;;;;;0.50;0.50;;;10.20;97.70;;;;;;4954757;28;20092;-84
2023/03/28 12:56:43;;;;;;;0.40;0.40;;;10.20;96.40;;;;;;4953610;28;20109;-84
2023/03/28 12:59:38;;;;;;;0.40;0.40;;;10.40;97.70;;;;;;4967824;28;20419;-83
2023/03/28 13:02:42;;;;;;;0.50;0.50;;;10.30;95.50;;;;;;4964100;28;20578;-83
2023/03/28 13:05:35;;;;;;;0.60;0.60;;;10.10;95.80;;;;;;4968329;28;20047;-84
2023/03/28 13:08:43;;;;;;;0.80;0.80;;;10.10;95.70;;;;;;4970159;28;20046;-83
2023/03/28 13:11:25;;;;;;;0.30;0.30;;;10.40;93.90;;;;;;4973062;28;20125;-83
2023/03/28 13:14:15;;;;;;;0.43;0.43;;;10.50;95.80;;;;;;4970067;28;20046;-84
2023/03/28 13:16:57;;;;;;;0.40;0.40;;;10.40;94.60;;;;;;4954113;28;20038;-83
2023/03/28 13:19:45;;;;;;;0.40;0.40;;;10.30;93.50;;;;;;4975100;28;20410;-83
2023/03/28 13:22:32;;;;;;;0.50;0.50;;;10.10;91.90;;;;;;4963665;28;20051;-83
2023/03/28 13:25:20;;;;;;;0.30;0.30;;;10.00;94.40;;;;;;4972142;28;20043;-83
2023/03/28 13:27:56;;;;;;;1.40;1.40;;;10.00;93.60;;;;;;4964266;28;20058;-84
2023/03/28 13:30:26;;;;;;;;;;;10.10;93.70;;;;;;4968831;28;20093;-82
2023/03/28 13:33:27;;;;;;;0.30;0.30;;;10.10;94.30;;;;;;4968865;28;19922;-84
2023/03/28 13:35:56;;;;;;;0.40;0.40;;;10.10;94.90;;;;;;4958820;28;20066;-84